Terminal Aerodrome Forecast
Issued by NWS

Home | Current Version | Previous Version | Text Only | Print | Product List | Glossary On
Versions: 1 2 3 4 5 6 7 8 9 10 11 12 13 14 15 16 17 18 19 20 21 22 23 24 25 26 27 28 29 30
000
FTUS41 KCAR 260100 AAA
TAFPQI
TAF AMD
KPQI 260119Z 2601/2624 VRB03KT 2SM BR SCT008 OVC035
     FM260500 13005KT 5SM -SHRA OVC008
     FM260800 13005KT 4SM -SHRA BR OVC008
     FM260900 13005KT 3SM -SHRA BR OVC005
     FM261400 16004KT 4SM -SHRA OVC008
     FM261700 VRB02KT 6SM -SHRA OVC015
     FM262100 29004KT P6SM OVC020
      AMD LTD TO CLD VIS AND WIND=

USA.gov is the U.S. government's official web portal to all federal, state and local government web resources and services.